sensor_id;sensor_type;location;lat;lon;timestamp;temperature;humidity
64718;DHT22;62506;46.070;14.492;2022-12-07T00:01:34;21.10;59.20
64718;DHT22;62506;46.070;14.492;2022-12-07T00:04:00;21.10;59.20
64718;DHT22;62506;46.070;14.492;2022-12-07T00:06:30;21.10;59.20
64718;DHT22;62506;46.070;14.492;2022-12-07T00:08:56;21.10;59.20
64718;DHT22;62506;46.070;14.492;2022-12-07T00:11:22;21.10;59.20
64718;DHT22;62506;46.070;14.492;2022-12-07T00:13:51;21.10;59.20
64718;DHT22;62506;46.070;14.492;2022-12-07T00:16:17;21.10;59.20
64718;DHT22;62506;46.070;14.492;2022-12-07T00:18:43;21.10;59.20
64718;DHT22;62506;46.070;14.492;2022-12-07T00:21:10;21.10;59.20
64718;DHT22;62506;46.070;14.492;2022-12-07T00:23:36;21.10;59.20
64718;DHT22;62506;46.070;14.492;2022-12-07T00:26:09;21.10;59.20
64718;DHT22;62506;46.070;14.492;2022-12-07T00:28:35;21.10;59.20
64718;DHT22;62506;46.070;14.492;2022-12-07T00:31:05;21.10;59.10
64718;DHT22;62506;46.070;14.492;2022-12-07T00:33:31;21.10;59.10
64718;DHT22;62506;46.070;14.492;2022-12-07T00:35:57;21.10;59.20
64718;DHT22;62506;46.070;14.492;2022-12-07T00:38:22;21.10;59.30
64718;DHT22;62506;46.070;14.492;2022-12-07T00:40:55;21.10;59.20
64718;DHT22;62506;46.070;14.492;2022-12-07T00:43:21;21.10;59.20
64718;DHT22;62506;46.070;14.492;2022-12-07T00:45:46;21.10;59.20
64718;DHT22;62506;46.070;14.492;2022-12-07T00:48:12;21.10;59.10
64718;DHT22;62506;46.070;14.492;2022-12-07T00:50:37;21.10;59.20
64718;DHT22;62506;46.070;14.492;2022-12-07T00:53:03;21.10;59.20
64718;DHT22;62506;46.070;14.492;2022-12-07T00:55:32;21.10;59.20
64718;DHT22;62506;46.070;14.492;2022-12-07T00:57:57;21.10;59.30
64718;DHT22;62506;46.070;14.492;2022-12-07T01:00:23;21.00;59.30
64718;DHT22;62506;46.070;14.492;2022-12-07T01:02:48;21.00;59.30
64718;DHT22;62506;46.070;14.492;2022-12-07T01:05:14;21.00;59.60
64718;DHT22;62506;46.070;14.492;2022-12-07T01:07:39;21.00;59.40
64718;DHT22;62506;46.070;14.492;2022-12-07T01:10:05;21.00;59.50
64718;DHT22;62506;46.070;14.492;2022-12-07T01:12:31;21.00;59.50
64718;DHT22;62506;46.070;14.492;2022-12-07T01:14:56;21.00;59.50
64718;DHT22;62506;46.070;14.492;2022-12-07T01:17:22;21.00;59.60
64718;DHT22;62506;46.070;14.492;2022-12-07T01:19:47;21.00;59.60
64718;DHT22;62506;46.070;14.492;2022-12-07T01:22:13;21.00;59.50
64718;DHT22;62506;46.070;14.492;2022-12-07T01:24:38;21.00;59.60
64718;DHT22;62506;46.070;14.492;2022-12-07T01:27:04;20.90;59.70
64718;DHT22;62506;46.070;14.492;2022-12-07T01:29:29;20.90;59.60
64718;DHT22;62506;46.070;14.492;2022-12-07T01:31:55;21.00;59.60
64718;DHT22;62506;46.070;14.492;2022-12-07T01:34:21;20.90;59.50
64718;DHT22;62506;46.070;14.492;2022-12-07T01:36:47;20.90;59.60
64718;DHT22;62506;46.070;14.492;2022-12-07T01:39:12;20.90;59.60
64718;DHT22;62506;46.070;14.492;2022-12-07T01:41:39;20.90;59.70
64718;DHT22;62506;46.070;14.492;2022-12-07T01:46:34;20.90;59.60
64718;DHT22;62506;46.070;14.492;2022-12-07T01:48:59;20.90;59.60
64718;DHT22;62506;46.070;14.492;2022-12-07T01:51:25;20.90;59.70
64718;DHT22;62506;46.070;14.492;2022-12-07T01:53:51;20.90;59.70
64718;DHT22;62506;46.070;14.492;2022-12-07T01:56:18;20.90;59.70
64718;DHT22;62506;46.070;14.492;2022-12-07T01:58:45;20.90;59.80
64718;DHT22;62506;46.070;14.492;2022-12-07T02:01:10;20.90;59.60
64718;DHT22;62506;46.070;14.492;2022-12-07T02:03:38;20.90;59.60
64718;DHT22;62506;46.070;14.492;2022-12-07T02:06:04;21.00;59.60
64718;DHT22;62506;46.070;14.492;2022-12-07T02:08:30;20.90;59.60
64718;DHT22;62506;46.070;14.492;2022-12-07T02:10:55;20.90;59.60
64718;DHT22;62506;46.070;14.492;2022-12-07T02:13:25;20.90;59.50
64718;DHT22;62506;46.070;14.492;2022-12-07T02:26:41;20.90;59.50
64718;DHT22;62506;46.070;14.492;2022-12-07T02:29:10;20.90;59.50
64718;DHT22;62506;46.070;14.492;2022-12-07T02:31:37;20.90;59.50
64718;DHT22;62506;46.070;14.492;2022-12-07T02:34:26;20.90;59.70
64718;DHT22;62506;46.070;14.492;2022-12-07T02:36:54;20.90;59.50
64718;DHT22;62506;46.070;14.492;2022-12-07T02:39:24;20.90;59.60
64718;DHT22;62506;46.070;14.492;2022-12-07T02:41:54;20.90;59.60
64718;DHT22;62506;46.070;14.492;2022-12-07T02:44:22;20.90;59.60
64718;DHT22;62506;46.070;14.492;2022-12-07T02:46:51;20.90;59.70
64718;DHT22;62506;46.070;14.492;2022-12-07T02:49:18;20.90;59.60
64718;DHT22;62506;46.070;14.492;2022-12-07T02:51:44;20.90;59.80
64718;DHT22;62506;46.070;14.492;2022-12-07T02:54:14;20.90;59.70
64718;DHT22;62506;46.070;14.492;2022-12-07T03:02:06;20.90;59.90
64718;DHT22;62506;46.070;14.492;2022-12-07T03:07:18;20.90;59.80
64718;DHT22;62506;46.070;14.492;2022-12-07T03:12:33;20.90;59.80
64718;DHT22;62506;46.070;14.492;2022-12-07T03:15:01;20.80;59.90
64718;DHT22;62506;46.070;14.492;2022-12-07T03:17:28;20.80;59.90
64718;DHT22;62506;46.070;14.492;2022-12-07T03:19:58;20.80;59.80
64718;DHT22;62506;46.070;14.492;2022-12-07T03:22:25;20.80;59.80
64718;DHT22;62506;46.070;14.492;2022-12-07T03:24:55;20.80;59.90
64718;DHT22;62506;46.070;14.492;2022-12-07T03:27:25;20.80;59.60
64718;DHT22;62506;46.070;14.492;2022-12-07T03:30:14;20.90;59.70
64718;DHT22;62506;46.070;14.492;2022-12-07T03:32:52;20.90;59.60
64718;DHT22;62506;46.070;14.492;2022-12-07T03:35:22;20.90;59.60
64718;DHT22;62506;46.070;14.492;2022-12-07T03:37:57;20.90;59.50
64718;DHT22;62506;46.070;14.492;2022-12-07T03:40:26;20.90;59.60
64718;DHT22;62506;46.070;14.492;2022-12-07T03:42:53;20.90;59.50
64718;DHT22;62506;46.070;14.492;2022-12-07T03:45:21;20.90;59.40
64718;DHT22;62506;46.070;14.492;2022-12-07T03:50:35;20.90;59.40
64718;DHT22;62506;46.070;14.492;2022-12-07T03:53:39;20.90;59.40
64718;DHT22;62506;46.070;14.492;2022-12-07T03:55:55;20.90;59.50
64718;DHT22;62506;46.070;14.492;2022-12-07T03:58:21;20.90;59.30
64718;DHT22;62506;46.070;14.492;2022-12-07T04:00:48;20.90;59.30
64718;DHT22;62506;46.070;14.492;2022-12-07T04:03:14;20.90;59.30
64718;DHT22;62506;46.070;14.492;2022-12-07T04:05:39;20.90;59.30
64718;DHT22;62506;46.070;14.492;2022-12-07T04:08:05;20.90;59.30
64718;DHT22;62506;46.070;14.492;2022-12-07T04:10:31;20.90;59.30
64718;DHT22;62506;46.070;14.492;2022-12-07T04:12:57;20.90;59.30
64718;DHT22;62506;46.070;14.492;2022-12-07T04:15:22;20.90;59.20
64718;DHT22;62506;46.070;14.492;2022-12-07T04:17:48;20.90;59.30
64718;DHT22;62506;46.070;14.492;2022-12-07T04:20:13;20.90;59.20
64718;DHT22;62506;46.070;14.492;2022-12-07T04:22:39;20.90;59.30
64718;DHT22;62506;46.070;14.492;2022-12-07T04:25:04;20.90;59.30
64718;DHT22;62506;46.070;14.492;2022-12-07T04:27:30;20.90;59.20
64718;DHT22;62506;46.070;14.492;2022-12-07T04:29:55;20.90;59.20
64718;DHT22;62506;46.070;14.492;2022-12-07T04:32:21;20.90;59.30
64718;DHT22;62506;46.070;14.492;2022-12-07T04:34:47;20.90;59.20
64718;DHT22;62506;46.070;14.492;2022-12-07T04:37:12;20.90;59.20
64718;DHT22;62506;46.070;14.492;2022-12-07T04:39:38;20.90;59.20
64718;DHT22;62506;46.070;14.492;2022-12-07T04:42:03;20.90;59.20
64718;DHT22;62506;46.070;14.492;2022-12-07T04:44:29;20.90;59.30
64718;DHT22;62506;46.070;14.492;2022-12-07T04:46:55;20.90;59.30
64718;DHT22;62506;46.070;14.492;2022-12-07T04:49:20;20.80;59.40
64718;DHT22;62506;46.070;14.492;2022-12-07T04:51:46;20.80;59.50
64718;DHT22;62506;46.070;14.492;2022-12-07T04:54:12;20.90;59.50
64718;DHT22;62506;46.070;14.492;2022-12-07T04:56:37;20.90;59.20
64718;DHT22;62506;46.070;14.492;2022-12-07T04:59:03;20.90;59.10
64718;DHT22;62506;46.070;14.492;2022-12-07T05:01:29;20.90;59.30
64718;DHT22;62506;46.070;14.492;2022-12-07T05:03:54;20.90;59.50
64718;DHT22;62506;46.070;14.492;2022-12-07T05:06:20;20.90;59.20
64718;DHT22;62506;46.070;14.492;2022-12-07T05:08:45;20.90;59.10
64718;DHT22;62506;46.070;14.492;2022-12-07T05:11:11;20.90;59.10
64718;DHT22;62506;46.070;14.492;2022-12-07T05:13:56;21.00;59.10
64718;DHT22;62506;46.070;14.492;2022-12-07T05:16:22;21.10;59.20
64718;DHT22;62506;46.070;14.492;2022-12-07T05:18:48;21.10;59.60
64718;DHT22;62506;46.070;14.492;2022-12-07T05:21:13;21.20;59.50
64718;DHT22;62506;46.070;14.492;2022-12-07T05:23:39;21.20;59.10
64718;DHT22;62506;46.070;14.492;2022-12-07T05:26:04;21.20;59.00
64718;DHT22;62506;46.070;14.492;2022-12-07T05:28:30;21.30;59.50
64718;DHT22;62506;46.070;14.492;2022-12-07T05:30:55;21.30;59.20
64718;DHT22;62506;46.070;14.492;2022-12-07T05:33:20;21.30;58.90
64718;DHT22;62506;46.070;14.492;2022-12-07T05:35:46;21.40;59.20
64718;DHT22;62506;46.070;14.492;2022-12-07T05:38:11;21.40;59.00
64718;DHT22;62506;46.070;14.492;2022-12-07T05:40:37;21.50;59.00
64718;DHT22;62506;46.070;14.492;2022-12-07T05:43:02;21.50;58.70
64718;DHT22;62506;46.070;14.492;2022-12-07T05:45:28;21.40;58.30
64718;DHT22;62506;46.070;14.492;2022-12-07T05:47:53;21.40;58.10
64718;DHT22;62506;46.070;14.492;2022-12-07T05:50:19;21.40;58.10
64718;DHT22;62506;46.070;14.492;2022-12-07T05:52:45;21.40;58.70
64718;DHT22;62506;46.070;14.492;2022-12-07T05:55:10;21.40;58.90
64718;DHT22;62506;46.070;14.492;2022-12-07T05:57:36;21.50;58.90
64718;DHT22;62506;46.070;14.492;2022-12-07T06:00:01;21.50;55.90
64718;DHT22;62506;46.070;14.492;2022-12-07T06:02:27;21.50;57.60
64718;DHT22;62506;46.070;14.492;2022-12-07T06:04:53;21.50;57.80
64718;DHT22;62506;46.070;14.492;2022-12-07T06:07:18;21.50;58.00
64718;DHT22;62506;46.070;14.492;2022-12-07T06:09:44;21.50;58.30
64718;DHT22;62506;46.070;14.492;2022-12-07T06:12:10;21.50;58.20
64718;DHT22;62506;46.070;14.492;2022-12-07T06:14:55;21.50;58.10
64718;DHT22;62506;46.070;14.492;2022-12-07T06:17:20;21.50;59.30
64718;DHT22;62506;46.070;14.492;2022-12-07T06:19:46;21.50;59.40
64718;DHT22;62506;46.070;14.492;2022-12-07T06:22:11;21.50;59.00
64718;DHT22;62506;46.070;14.492;2022-12-07T06:24:37;21.40;59.00
64718;DHT22;62506;46.070;14.492;2022-12-07T06:27:03;21.40;58.50
64718;DHT22;62506;46.070;14.492;2022-12-07T06:29:29;21.40;58.30
64718;DHT22;62506;46.070;14.492;2022-12-07T06:31:54;21.40;58.20
64718;DHT22;62506;46.070;14.492;2022-12-07T06:34:22;21.40;58.70
64718;DHT22;62506;46.070;14.492;2022-12-07T06:36:48;21.40;58.40
64718;DHT22;62506;46.070;14.492;2022-12-07T06:39:17;21.40;58.10
64718;DHT22;62506;46.070;14.492;2022-12-07T06:41:43;21.40;58.30
64718;DHT22;62506;46.070;14.492;2022-12-07T06:44:08;21.50;58.20
64718;DHT22;62506;46.070;14.492;2022-12-07T06:46:34;21.50;58.30
64718;DHT22;62506;46.070;14.492;2022-12-07T06:49:01;21.50;58.30
64718;DHT22;62506;46.070;14.492;2022-12-07T06:51:26;21.50;58.40
64718;DHT22;62506;46.070;14.492;2022-12-07T06:53:52;21.50;59.40
64718;DHT22;62506;46.070;14.492;2022-12-07T06:56:17;21.50;58.30
64718;DHT22;62506;46.070;14.492;2022-12-07T06:58:43;21.50;58.40
64718;DHT22;62506;46.070;14.492;2022-12-07T07:01:13;21.50;58.70
64718;DHT22;62506;46.070;14.492;2022-12-07T07:03:39;21.50;58.40
64718;DHT22;62506;46.070;14.492;2022-12-07T07:06:05;21.50;57.80
64718;DHT22;62506;46.070;14.492;2022-12-07T07:08:31;21.50;58.20
64718;DHT22;62506;46.070;14.492;2022-12-07T07:11:04;21.50;57.80
64718;DHT22;62506;46.070;14.492;2022-12-07T07:13:30;21.50;58.70
64718;DHT22;62506;46.070;14.492;2022-12-07T07:15:56;21.40;57.80
64718;DHT22;62506;46.070;14.492;2022-12-07T07:18:23;21.40;58.10
64718;DHT22;62506;46.070;14.492;2022-12-07T07:20:50;21.40;54.90
64718;DHT22;62506;46.070;14.492;2022-12-07T07:23:15;21.30;53.40
64718;DHT22;62506;46.070;14.492;2022-12-07T07:25:41;21.30;54.60
64718;DHT22;62506;46.070;14.492;2022-12-07T07:28:06;21.30;56.00
64718;DHT22;62506;46.070;14.492;2022-12-07T07:30:32;21.30;56.00
64718;DHT22;62506;46.070;14.492;2022-12-07T07:32:58;21.30;54.20
64718;DHT22;62506;46.070;14.492;2022-12-07T07:35:24;21.30;54.40
64718;DHT22;62506;46.070;14.492;2022-12-07T07:37:49;21.30;55.00
64718;DHT22;62506;46.070;14.492;2022-12-07T07:40:15;21.40;55.60
64718;DHT22;62506;46.070;14.492;2022-12-07T07:42:41;21.40;55.90
64718;DHT22;62506;46.070;14.492;2022-12-07T07:45:06;21.40;56.10
64718;DHT22;62506;46.070;14.492;2022-12-07T07:47:32;21.40;56.20
64718;DHT22;62506;46.070;14.492;2022-12-07T07:49:57;21.40;56.40
64718;DHT22;62506;46.070;14.492;2022-12-07T07:52:23;21.40;56.50
64718;DHT22;62506;46.070;14.492;2022-12-07T07:54:48;21.40;57.00
64718;DHT22;62506;46.070;14.492;2022-12-07T07:57:15;21.40;57.00
64718;DHT22;62506;46.070;14.492;2022-12-07T07:59:41;21.40;57.50
64718;DHT22;62506;46.070;14.492;2022-12-07T08:02:09;21.40;57.10
64718;DHT22;62506;46.070;14.492;2022-12-07T08:04:35;21.40;57.10
64718;DHT22;62506;46.070;14.492;2022-12-07T08:07:01;21.30;57.00
64718;DHT22;62506;46.070;14.492;2022-12-07T08:09:26;21.30;57.00
64718;DHT22;62506;46.070;14.492;2022-12-07T08:11:52;21.30;57.50
64718;DHT22;62506;46.070;14.492;2022-12-07T08:14:17;21.30;57.10
64718;DHT22;62506;46.070;14.492;2022-12-07T08:16:43;21.40;57.30
64718;DHT22;62506;46.070;14.492;2022-12-07T08:19:08;21.40;57.00
64718;DHT22;62506;46.070;14.492;2022-12-07T08:21:34;21.40;57.00
64718;DHT22;62506;46.070;14.492;2022-12-07T08:23:59;21.40;57.00
64718;DHT22;62506;46.070;14.492;2022-12-07T08:26:25;21.40;56.80
64718;DHT22;62506;46.070;14.492;2022-12-07T08:28:52;21.40;56.80
64718;DHT22;62506;46.070;14.492;2022-12-07T08:31:17;21.50;56.80
64718;DHT22;62506;46.070;14.492;2022-12-07T08:33:45;21.50;57.50
64718;DHT22;62506;46.070;14.492;2022-12-07T08:36:11;21.50;56.80
64718;DHT22;62506;46.070;14.492;2022-12-07T08:38:37;21.50;56.70
64718;DHT22;62506;46.070;14.492;2022-12-07T08:41:03;21.50;56.70
64718;DHT22;62506;46.070;14.492;2022-12-07T08:43:28;21.50;56.50
64718;DHT22;62506;46.070;14.492;2022-12-07T08:48:22;21.50;56.80
64718;DHT22;62506;46.070;14.492;2022-12-07T08:50:50;21.50;56.50
64718;DHT22;62506;46.070;14.492;2022-12-07T08:53:16;21.50;56.70
64718;DHT22;62506;46.070;14.492;2022-12-07T08:55:42;21.50;56.50
64718;DHT22;62506;46.070;14.492;2022-12-07T08:58:08;21.50;56.60
64718;DHT22;62506;46.070;14.492;2022-12-07T09:00:34;21.50;56.50
64718;DHT22;62506;46.070;14.492;2022-12-07T09:02:59;21.50;56.60
64718;DHT22;62506;46.070;14.492;2022-12-07T09:05:25;21.50;56.40
64718;DHT22;62506;46.070;14.492;2022-12-07T09:07:51;21.50;56.50
64718;DHT22;62506;46.070;14.492;2022-12-07T09:10:17;21.50;56.40
64718;DHT22;62506;46.070;14.492;2022-12-07T09:12:43;21.50;56.10
64718;DHT22;62506;46.070;14.492;2022-12-07T09:15:09;21.50;56.20
64718;DHT22;62506;46.070;14.492;2022-12-07T09:17:34;21.50;56.20
64718;DHT22;62506;46.070;14.492;2022-12-07T09:20:01;21.50;56.50
64718;DHT22;62506;46.070;14.492;2022-12-07T09:22:29;21.50;56.70
64718;DHT22;62506;46.070;14.492;2022-12-07T09:24:56;21.50;56.50
64718;DHT22;62506;46.070;14.492;2022-12-07T09:27:24;21.50;56.60
64718;DHT22;62506;46.070;14.492;2022-12-07T09:29:50;21.50;56.00
64718;DHT22;62506;46.070;14.492;2022-12-07T09:32:15;21.50;56.40
64718;DHT22;62506;46.070;14.492;2022-12-07T09:34:41;21.50;56.00
64718;DHT22;62506;46.070;14.492;2022-12-07T09:37:07;21.50;56.00
64718;DHT22;62506;46.070;14.492;2022-12-07T09:39:33;21.50;56.70
64718;DHT22;62506;46.070;14.492;2022-12-07T09:41:58;21.50;56.10
64718;DHT22;62506;46.070;14.492;2022-12-07T09:44:25;21.50;56.10
64718;DHT22;62506;46.070;14.492;2022-12-07T09:46:51;21.50;56.30
64718;DHT22;62506;46.070;14.492;2022-12-07T09:49:21;21.50;56.40
64718;DHT22;62506;46.070;14.492;2022-12-07T09:51:47;21.60;56.90
64718;DHT22;62506;46.070;14.492;2022-12-07T09:54:14;21.60;56.10
64718;DHT22;62506;46.070;14.492;2022-12-07T09:56:39;21.60;56.60
64718;DHT22;62506;46.070;14.492;2022-12-07T09:59:05;21.60;56.70
64718;DHT22;62506;46.070;14.492;2022-12-07T10:01:32;21.60;56.20
64718;DHT22;62506;46.070;14.492;2022-12-07T10:04:02;21.60;55.00
64718;DHT22;62506;46.070;14.492;2022-12-07T10:06:31;21.60;55.30
64718;DHT22;62506;46.070;14.492;2022-12-07T10:08:57;21.60;55.80
64718;DHT22;62506;46.070;14.492;2022-12-07T10:11:22;21.60;55.30
64718;DHT22;62506;46.070;14.492;2022-12-07T10:13:49;21.60;55.60
64718;DHT22;62506;46.070;14.492;2022-12-07T10:18:49;21.60;55.60
64718;DHT22;62506;46.070;14.492;2022-12-07T10:29:19;21.70;56.00
64718;DHT22;62506;46.070;14.492;2022-12-07T10:31:46;21.60;56.00
64718;DHT22;62506;46.070;14.492;2022-12-07T10:34:21;21.70;55.30
64718;DHT22;62506;46.070;14.492;2022-12-07T10:36:49;21.70;55.20
64718;DHT22;62506;46.070;14.492;2022-12-07T10:39:18;21.60;55.70
64718;DHT22;62506;46.070;14.492;2022-12-07T10:44:21;21.60;55.60
64718;DHT22;62506;46.070;14.492;2022-12-07T10:47:32;21.60;55.90
64718;DHT22;62506;46.070;14.492;2022-12-07T10:57:15;21.50;56.00
64718;DHT22;62506;46.070;14.492;2022-12-07T10:59:54;21.50;55.90
64718;DHT22;62506;46.070;14.492;2022-12-07T11:02:25;21.50;55.80
64718;DHT22;62506;46.070;14.492;2022-12-07T11:13:16;21.50;56.10
64718;DHT22;62506;46.070;14.492;2022-12-07T11:23:47;21.50;56.00
64718;DHT22;62506;46.070;14.492;2022-12-07T11:26:23;21.50;55.90
64718;DHT22;62506;46.070;14.492;2022-12-07T11:31:26;21.60;55.80
64718;DHT22;62506;46.070;14.492;2022-12-07T11:34:07;21.50;55.70
64718;DHT22;62506;46.070;14.492;2022-12-07T11:36:39;21.60;56.20
64718;DHT22;62506;46.070;14.492;2022-12-07T11:39:20;21.60;55.90
64718;DHT22;62506;46.070;14.492;2022-12-07T11:41:49;21.60;56.00
64718;DHT22;62506;46.070;14.492;2022-12-07T11:44:25;21.60;55.90
64718;DHT22;62506;46.070;14.492;2022-12-07T11:47:00;21.60;56.00
64718;DHT22;62506;46.070;14.492;2022-12-07T11:49:31;21.60;55.70
64718;DHT22;62506;46.070;14.492;2022-12-07T11:52:02;21.50;55.90
64718;DHT22;62506;46.070;14.492;2022-12-07T11:54:30;21.50;55.70
64718;DHT22;62506;46.070;14.492;2022-12-07T11:56:59;21.50;55.50
64718;DHT22;62506;46.070;14.492;2022-12-07T11:59:36;21.50;56.40
64718;DHT22;62506;46.070;14.492;2022-12-07T12:02:16;21.50;55.60
64718;DHT22;62506;46.070;14.492;2022-12-07T12:07:10;21.50;56.30
64718;DHT22;62506;46.070;14.492;2022-12-07T12:09:46;21.50;55.90
64718;DHT22;62506;46.070;14.492;2022-12-07T12:19:45;21.50;55.50
64718;DHT22;62506;46.070;14.492;2022-12-07T12:22:23;21.50;55.00
64718;DHT22;62506;46.070;14.492;2022-12-07T12:24:52;21.50;55.40
64718;DHT22;62506;46.070;14.492;2022-12-07T12:27:30;21.50;55.40
64718;DHT22;62506;46.070;14.492;2022-12-07T12:30:01;21.60;55.30
64718;DHT22;62506;46.070;14.492;2022-12-07T12:32:39;21.60;55.30
64718;DHT22;62506;46.070;14.492;2022-12-07T12:37:52;21.60;55.00
64718;DHT22;62506;46.070;14.492;2022-12-07T12:42:47;21.60;54.90
64718;DHT22;62506;46.070;14.492;2022-12-07T12:45:17;21.60;54.80
64718;DHT22;62506;46.070;14.492;2022-12-07T12:50:19;21.60;55.00
64718;DHT22;62506;46.070;14.492;2022-12-07T12:52:53;21.60;55.00
64718;DHT22;62506;46.070;14.492;2022-12-07T12:55:22;21.60;54.80
64718;DHT22;62506;46.070;14.492;2022-12-07T12:58:21;21.60;54.50
64718;DHT22;62506;46.070;14.492;2022-12-07T13:00:40;21.50;50.70
64718;DHT22;62506;46.070;14.492;2022-12-07T13:03:16;21.40;51.50
64718;DHT22;62506;46.070;14.492;2022-12-07T13:05:46;21.50;53.20
64718;DHT22;62506;46.070;14.492;2022-12-07T13:08:15;21.50;53.30
64718;DHT22;62506;46.070;14.492;2022-12-07T13:10:44;21.60;53.70
64718;DHT22;62506;46.070;14.492;2022-12-07T13:18:03;21.60;54.70
64718;DHT22;62506;46.070;14.492;2022-12-07T13:20:45;21.50;49.30
64718;DHT22;62506;46.070;14.492;2022-12-07T13:23:12;21.20;47.30
64718;DHT22;62506;46.070;14.492;2022-12-07T13:25:41;21.30;49.60
64718;DHT22;62506;46.070;14.492;2022-12-07T13:28:14;21.40;51.10
64718;DHT22;62506;46.070;14.492;2022-12-07T13:33:18;21.20;47.40
64718;DHT22;62506;46.070;14.492;2022-12-07T13:35:44;21.30;50.00
64718;DHT22;62506;46.070;14.492;2022-12-07T13:38:24;21.40;51.90
64718;DHT22;62506;46.070;14.492;2022-12-07T13:41:03;21.40;52.10
64718;DHT22;62506;46.070;14.492;2022-12-07T13:43:29;21.50;52.10
64718;DHT22;62506;46.070;14.492;2022-12-07T13:45:58;21.60;52.90
64718;DHT22;62506;46.070;14.492;2022-12-07T13:50:58;21.60;53.40
64718;DHT22;62506;46.070;14.492;2022-12-07T13:53:24;21.50;53.50
64718;DHT22;62506;46.070;14.492;2022-12-07T13:55:50;21.50;53.80
64718;DHT22;62506;46.070;14.492;2022-12-07T13:58:16;21.40;50.70
64718;DHT22;62506;46.070;14.492;2022-12-07T14:00:42;21.40;54.50
64718;DHT22;62506;46.070;14.492;2022-12-07T14:05:37;21.40;53.80
64718;DHT22;62506;46.070;14.492;2022-12-07T14:08:04;21.40;54.20
64718;DHT22;62506;46.070;14.492;2022-12-07T14:10:31;21.40;54.50
64718;DHT22;62506;46.070;14.492;2022-12-07T14:12:57;21.40;54.60
64718;DHT22;62506;46.070;14.492;2022-12-07T14:15:24;21.40;55.00
64718;DHT22;62506;46.070;14.492;2022-12-07T14:17:51;21.40;54.90
64718;DHT22;62506;46.070;14.492;2022-12-07T14:23:02;21.40;54.20
64718;DHT22;62506;46.070;14.492;2022-12-07T14:25:45;21.30;53.70
64718;DHT22;62506;46.070;14.492;2022-12-07T14:28:27;21.40;54.50
64718;DHT22;62506;46.070;14.492;2022-12-07T14:30:53;21.30;53.30
64718;DHT22;62506;46.070;14.492;2022-12-07T14:33:19;21.30;54.00
64718;DHT22;62506;46.070;14.492;2022-12-07T14:35:45;21.40;54.50
64718;DHT22;62506;46.070;14.492;2022-12-07T14:38:11;21.40;54.70
64718;DHT22;62506;46.070;14.492;2022-12-07T14:40:36;21.40;54.80
64718;DHT22;62506;46.070;14.492;2022-12-07T14:43:04;21.40;54.80
64718;DHT22;62506;46.070;14.492;2022-12-07T14:45:30;21.50;55.00
64718;DHT22;62506;46.070;14.492;2022-12-07T14:47:56;21.50;55.00
64718;DHT22;62506;46.070;14.492;2022-12-07T14:50:21;21.50;55.10
64718;DHT22;62506;46.070;14.492;2022-12-07T14:52:48;21.40;55.10
64718;DHT22;62506;46.070;14.492;2022-12-07T14:55:25;21.50;55.20
64718;DHT22;62506;46.070;14.492;2022-12-07T14:57:51;21.50;55.30
64718;DHT22;62506;46.070;14.492;2022-12-07T15:00:17;21.50;55.40
64718;DHT22;62506;46.070;14.492;2022-12-07T15:02:43;21.50;55.30
64718;DHT22;62506;46.070;14.492;2022-12-07T15:05:09;21.50;55.40
64718;DHT22;62506;46.070;14.492;2022-12-07T15:07:35;21.40;55.40
64718;DHT22;62506;46.070;14.492;2022-12-07T15:10:00;21.50;55.50
64718;DHT22;62506;46.070;14.492;2022-12-07T15:12:26;21.40;55.40
64718;DHT22;62506;46.070;14.492;2022-12-07T15:14:52;21.40;54.60
64718;DHT22;62506;46.070;14.492;2022-12-07T15:17:17;21.40;55.00
64718;DHT22;62506;46.070;14.492;2022-12-07T15:19:43;21.40;55.20
64718;DHT22;62506;46.070;14.492;2022-12-07T15:22:08;21.50;55.50
64718;DHT22;62506;46.070;14.492;2022-12-07T15:24:36;21.50;55.50
64718;DHT22;62506;46.070;14.492;2022-12-07T15:27:02;21.50;55.60
64718;DHT22;62506;46.070;14.492;2022-12-07T15:29:27;21.60;55.90
64718;DHT22;62506;46.070;14.492;2022-12-07T15:31:53;21.50;55.90
64718;DHT22;62506;46.070;14.492;2022-12-07T15:34:19;21.50;55.90
64718;DHT22;62506;46.070;14.492;2022-12-07T15:36:44;21.50;55.80
64718;DHT22;62506;46.070;14.492;2022-12-07T15:39:10;21.50;56.00
64718;DHT22;62506;46.070;14.492;2022-12-07T15:41:35;21.50;56.10
64718;DHT22;62506;46.070;14.492;2022-12-07T15:44:01;21.50;56.50
64718;DHT22;62506;46.070;14.492;2022-12-07T15:46:45;21.40;55.90
64718;DHT22;62506;46.070;14.492;2022-12-07T15:49:15;21.40;56.00
64718;DHT22;62506;46.070;14.492;2022-12-07T15:51:41;21.40;56.50
64718;DHT22;62506;46.070;14.492;2022-12-07T15:54:08;21.40;56.40
64718;DHT22;62506;46.070;14.492;2022-12-07T15:56:36;21.40;56.60
64718;DHT22;62506;46.070;14.492;2022-12-07T15:59:02;21.50;56.80
64718;DHT22;62506;46.070;14.492;2022-12-07T16:01:27;21.50;56.70
64718;DHT22;62506;46.070;14.492;2022-12-07T16:03:53;21.50;56.70
64718;DHT22;62506;46.070;14.492;2022-12-07T16:06:19;21.50;56.60
64718;DHT22;62506;46.070;14.492;2022-12-07T16:08:45;21.50;56.00
64718;DHT22;62506;46.070;14.492;2022-12-07T16:11:11;21.50;56.00
64718;DHT22;62506;46.070;14.492;2022-12-07T16:13:37;21.50;56.20
64718;DHT22;62506;46.070;14.492;2022-12-07T16:16:08;21.60;56.40
64718;DHT22;62506;46.070;14.492;2022-12-07T16:18:46;21.70;56.20
64718;DHT22;62506;46.070;14.492;2022-12-07T16:21:31;21.70;55.90
64718;DHT22;62506;46.070;14.492;2022-12-07T16:23:57;21.70;55.80
64718;DHT22;62506;46.070;14.492;2022-12-07T16:26:24;21.80;55.80
64718;DHT22;62506;46.070;14.492;2022-12-07T16:28:50;21.80;55.80
64718;DHT22;62506;46.070;14.492;2022-12-07T16:31:17;21.80;55.80
64718;DHT22;62506;46.070;14.492;2022-12-07T16:33:43;21.80;55.80
64718;DHT22;62506;46.070;14.492;2022-12-07T16:36:10;21.80;56.00
64718;DHT22;62506;46.070;14.492;2022-12-07T16:38:42;21.90;56.50
64718;DHT22;62506;46.070;14.492;2022-12-07T16:41:08;21.80;55.80
64718;DHT22;62506;46.070;14.492;2022-12-07T16:43:34;21.80;55.80
64718;DHT22;62506;46.070;14.492;2022-12-07T16:46:01;21.80;55.90
64718;DHT22;62506;46.070;14.492;2022-12-07T16:48:26;21.80;56.00
64718;DHT22;62506;46.070;14.492;2022-12-07T16:50:52;21.80;56.30
64718;DHT22;62506;46.070;14.492;2022-12-07T16:53:41;21.90;56.40
64718;DHT22;62506;46.070;14.492;2022-12-07T16:56:15;21.90;56.80
64718;DHT22;62506;46.070;14.492;2022-12-07T16:58:41;21.90;57.70
64718;DHT22;62506;46.070;14.492;2022-12-07T17:01:09;21.90;58.00